ANA28 RJTT-RJBB
Flight info
| Callsign | ANA28 |
|---|---|
| Flight time | 1h 10m |
| Altitude | 32000 |
| Route | LAXAS Y56 TOHME Y54 KOHWA Y544 DUBKA |
| Aircraft | B772/H-SDE2E3FGHIJ5LORVWXY/LB1D1 |
Departure
| Time | 2026-05-04 10:59 |
|---|---|
| Airport | Tokyo Haneda International Airport (RJTT) |
Arrival
| Time | 2026-05-04 12:10 |
|---|---|
| Airport | Kansai International Airport (RJBB) |
| Time | Latitude | Longitude | Altitude | Speed | Heading |
|---|---|---|---|---|---|
| 2026-05-04 10:33 | 35.54587 | 139.77027 | 72 ft | 0 kts | 240° |
| 2026-05-04 10:51 | 35.54630 | 139.77132 | 63 ft | 4 kts | 294° |
| 2026-05-04 10:52 | 35.54613 | 139.77148 | 62 ft | 4 kts | 351° |
| 2026-05-04 10:52 | 35.54587 | 139.77154 | 63 ft | 4 kts | 337° |
| 2026-05-04 10:52 | 35.54581 | 139.77157 | 62 ft | 0 kts | 329° |
| 2026-05-04 10:54 | 35.54600 | 139.77143 | 62 ft | 5 kts | 329° |
| 2026-05-04 10:54 | 35.54630 | 139.77121 | 68 ft | 5 kts | 329° |
| 2026-05-04 10:56 | 35.55072 | 139.77307 | 62 ft | 15 kts | 330° |
| 2026-05-04 10:56 | 35.55160 | 139.77244 | 62 ft | 15 kts | 329° |
| 2026-05-04 10:56 | 35.55246 | 139.77180 | 64 ft | 15 kts | 329° |
| 2026-05-04 10:57 | 35.55336 | 139.77121 | 66 ft | 15 kts | 330° |
| 2026-05-04 10:57 | 35.55424 | 139.77058 | 65 ft | 15 kts | 330° |
| 2026-05-04 10:57 | 35.55512 | 139.76995 | 62 ft | 15 kts | 329° |
| 2026-05-04 10:57 | 35.55600 | 139.76931 | 62 ft | 15 kts | 329° |
| 2026-05-04 10:58 | 35.55697 | 139.76902 | 67 ft | 15 kts | 4° |
| 2026-05-04 10:58 | 35.55795 | 139.76934 | 64 ft | 15 kts | 27° |
| 2026-05-04 10:58 | 35.55802 | 139.77042 | 62 ft | 15 kts | 132° |
| 2026-05-04 10:58 | 35.55716 | 139.77110 | 64 ft | 15 kts | 147° |
| 2026-05-04 10:59 | 35.55573 | 139.77210 | 64 ft | 47 kts | 150° |
| 2026-05-04 10:59 | 35.55048 | 139.77581 | 64 ft | 127 kts | 150° |
| 2026-05-04 10:59 | 35.54071 | 139.78231 | 237 ft | 177 kts | 157° |
| 2026-05-04 10:59 | 35.52989 | 139.78927 | 1078 ft | 179 kts | 152° |
| 2026-05-04 11:00 | 35.51853 | 139.79744 | 1754 ft | 199 kts | 149° |
| 2026-05-04 11:01 | 35.41469 | 139.85363 | 4759 ft | 266 kts | 206° |
| 2026-05-04 11:02 | 35.39990 | 139.84095 | 5430 ft | 259 kts | 232° |
| 2026-05-04 11:02 | 35.38803 | 139.82416 | 6070 ft | 261 kts | 233° |
| 2026-05-04 11:05 | 35.16754 | 139.59488 | 17012 ft | 337 kts | 225° |
| 2026-05-04 11:06 | 35.15566 | 139.58251 | 17616 ft | 339 kts | 225° |
| 2026-05-04 11:06 | 35.13759 | 139.56370 | 18394 ft | 344 kts | 225° |
| 2026-05-04 11:06 | 35.11332 | 139.53847 | 19516 ft | 345 kts | 225° |
| 2026-05-04 11:06 | 35.10120 | 139.52588 | 20092 ft | 343 kts | 225° |
| 2026-05-04 11:08 | 35.04630 | 139.33423 | 24262 ft | 361 kts | 255° |
| 2026-05-04 11:10 | 35.01027 | 139.11743 | 27685 ft | 382 kts | 254° |
| 2026-05-04 11:12 | 34.98289 | 138.88716 | 29997 ft | 405 kts | 260° |
| 2026-05-04 11:12 | 34.98110 | 138.85291 | 30255 ft | 405 kts | 259° |
| 2026-05-04 11:12 | 34.97930 | 138.81864 | 30564 ft | 405 kts | 259° |
| 2026-05-04 11:12 | 34.97748 | 138.78433 | 30868 ft | 406 kts | 259° |
| 2026-05-04 11:13 | 34.97565 | 138.75006 | 31236 ft | 404 kts | 259° |
| 2026-05-04 11:13 | 34.97381 | 138.71588 | 31592 ft | 403 kts | 259° |
| 2026-05-04 11:13 | 34.97006 | 138.64734 | 31712 ft | 405 kts | 259° |
| 2026-05-04 11:14 | 34.96943 | 138.63580 | 31728 ft | 404 kts | 259° |
| 2026-05-04 11:16 | 34.95117 | 138.30912 | 31749 ft | 398 kts | 259° |
| 2026-05-04 11:16 | 34.94731 | 138.24197 | 31754 ft | 397 kts | 259° |
| 2026-05-04 11:17 | 34.94339 | 138.17483 | 31809 ft | 397 kts | 259° |
| 2026-05-04 11:19 | 34.92752 | 137.90576 | 31833 ft | 397 kts | 259° |
| 2026-05-04 11:19 | 34.92349 | 137.83908 | 31842 ft | 397 kts | 259° |
| 2026-05-04 11:20 | 34.91956 | 137.77191 | 31873 ft | 397 kts | 259° |
| 2026-05-04 11:20 | 34.91434 | 137.70510 | 31863 ft | 392 kts | 254° |
| 2026-05-04 11:22 | 34.84759 | 137.45584 | 31893 ft | 388 kts | 247° |
| 2026-05-04 11:23 | 34.82991 | 137.39374 | 31888 ft | 389 kts | 248° |
| 2026-05-04 11:25 | 34.76798 | 137.17653 | 31920 ft | 388 kts | 247° |
| 2026-05-04 11:25 | 34.75013 | 137.11448 | 31951 ft | 388 kts | 247° |
| 2026-05-04 11:27 | 34.66107 | 136.84408 | 31944 ft | 382 kts | 245° |
| 2026-05-04 11:28 | 34.64019 | 136.78475 | 31951 ft | 382 kts | 245° |
| 2026-05-04 11:28 | 34.61934 | 136.72544 | 31946 ft | 382 kts | 245° |
| 2026-05-04 11:29 | 34.59843 | 136.66607 | 31952 ft | 383 kts | 245° |
| 2026-05-04 11:29 | 34.57743 | 136.60654 | 31960 ft | 383 kts | 245° |
| 2026-05-04 11:33 | 34.43002 | 136.19117 | 31983 ft | 383 kts | 245° |
| 2026-05-04 11:33 | 34.40874 | 136.13214 | 31995 ft | 386 kts | 244° |
| 2026-05-04 11:34 | 34.38719 | 136.07237 | 31987 ft | 387 kts | 244° |
| 2026-05-04 11:34 | 34.36557 | 136.01218 | 31985 ft | 390 kts | 244° |
| 2026-05-04 11:35 | 34.34389 | 135.95196 | 31999 ft | 390 kts | 244° |
| 2026-05-04 11:35 | 34.32230 | 135.89207 | 32001 ft | 390 kts | 244° |
| 2026-05-04 11:36 | 34.30103 | 135.83182 | 31999 ft | 390 kts | 247° |
| 2026-05-04 11:36 | 34.28515 | 135.76919 | 32028 ft | 390 kts | 253° |
| 2026-05-04 11:37 | 34.27365 | 135.70524 | 31999 ft | 389 kts | 253° |
| 2026-05-04 11:37 | 34.26193 | 135.64154 | 32018 ft | 387 kts | 253° |
| 2026-05-04 11:38 | 34.25027 | 135.57811 | 32057 ft | 386 kts | 253° |
| 2026-05-04 11:38 | 34.23850 | 135.51456 | 32027 ft | 387 kts | 253° |
| 2026-05-04 11:39 | 34.22678 | 135.45098 | 31700 ft | 389 kts | 253° |
| 2026-05-04 11:40 | 34.19447 | 135.26897 | 26616 ft | 350 kts | 255° |
| 2026-05-04 11:41 | 34.18841 | 135.24046 | 25849 ft | 351 kts | 254° |
| 2026-05-04 11:41 | 34.18243 | 135.21177 | 25098 ft | 353 kts | 255° |
| 2026-05-04 11:41 | 34.17680 | 135.18279 | 24346 ft | 356 kts | 256° |
| 2026-05-04 11:41 | 34.16955 | 135.15453 | 23571 ft | 353 kts | 246° |
| 2026-05-04 11:42 | 34.15620 | 135.12935 | 22738 ft | 360 kts | 236° |
| 2026-05-04 11:42 | 34.13968 | 135.10655 | 22010 ft | 363 kts | 230° |
| 2026-05-04 11:42 | 34.11927 | 135.08814 | 21297 ft | 370 kts | 217° |
| 2026-05-04 11:42 | 34.09663 | 135.07320 | 20608 ft | 372 kts | 216° |
| 2026-05-04 11:43 | 34.07387 | 135.05832 | 19931 ft | 373 kts | 216° |
| 2026-05-04 11:43 | 34.05108 | 135.04330 | 19261 ft | 374 kts | 215° |
| 2026-05-04 11:43 | 34.02824 | 135.02812 | 18601 ft | 375 kts | 215° |
| 2026-05-04 11:43 | 34.00533 | 135.01279 | 17876 ft | 377 kts | 215° |
| 2026-05-04 11:44 | 33.98273 | 134.99761 | 17165 ft | 377 kts | 215° |
| 2026-05-04 11:44 | 33.95980 | 134.98217 | 16522 ft | 377 kts | 215° |
| 2026-05-04 11:44 | 33.93693 | 134.96677 | 15887 ft | 377 kts | 215° |
| 2026-05-04 11:44 | 33.91406 | 134.95137 | 15268 ft | 377 kts | 215° |
| 2026-05-04 11:45 | 33.89122 | 134.93598 | 14664 ft | 376 kts | 215° |
| 2026-05-04 11:45 | 33.86835 | 134.92058 | 14068 ft | 376 kts | 215° |
| 2026-05-04 11:45 | 33.84542 | 134.90515 | 13418 ft | 380 kts | 215° |
| 2026-05-04 11:45 | 33.82218 | 134.88951 | 12912 ft | 384 kts | 214° |
| 2026-05-04 11:46 | 33.80016 | 134.87241 | 12309 ft | 371 kts | 226° |
| 2026-05-04 11:46 | 33.78462 | 134.84800 | 11824 ft | 367 kts | 246° |
| 2026-05-04 11:46 | 33.77550 | 134.82020 | 11280 ft | 342 kts | 257° |
| 2026-05-04 11:46 | 33.77264 | 134.79364 | 10918 ft | 301 kts | 271° |
| 2026-05-04 11:47 | 33.77279 | 134.76997 | 10762 ft | 273 kts | 272° |
| 2026-05-04 11:47 | 33.77288 | 134.74760 | 10654 ft | 263 kts | 272° |
| 2026-05-04 11:47 | 33.77288 | 134.72624 | 10540 ft | 254 kts | 271° |
| 2026-05-04 11:47 | 33.77283 | 134.70516 | 10428 ft | 245 kts | 271° |
| 2026-05-04 11:48 | 33.77274 | 134.68505 | 10325 ft | 236 kts | 271° |
| 2026-05-04 11:48 | 33.77263 | 134.66576 | 10233 ft | 227 kts | 271° |
| 2026-05-04 11:48 | 33.77253 | 134.64704 | 10162 ft | 230 kts | 272° |
| 2026-05-04 11:48 | 33.77538 | 134.62792 | 10078 ft | 239 kts | 296° |
| 2026-05-04 11:49 | 33.78567 | 134.61196 | 10052 ft | 246 kts | 317° |
| 2026-05-04 11:49 | 33.79948 | 134.60002 | 10053 ft | 244 kts | 323° |
| 2026-05-04 11:49 | 33.81475 | 134.59135 | 9860 ft | 249 kts | 346° |
| 2026-05-04 11:49 | 33.83204 | 134.59083 | 9760 ft | 251 kts | 355° |
| 2026-05-04 11:50 | 33.84968 | 134.59100 | 9642 ft | 255 kts | 354° |
| 2026-05-04 11:50 | 33.86738 | 134.59107 | 9542 ft | 254 kts | 354° |
| 2026-05-04 11:50 | 33.88499 | 134.59109 | 9428 ft | 252 kts | 354° |
| 2026-05-04 11:50 | 33.90244 | 134.59107 | 9339 ft | 249 kts | 354° |
| 2026-05-04 11:51 | 33.91968 | 134.59099 | 9258 ft | 247 kts | 354° |
| 2026-05-04 11:51 | 33.93680 | 134.59087 | 9192 ft | 245 kts | 354° |
| 2026-05-04 11:51 | 33.95377 | 134.59071 | 9107 ft | 243 kts | 354° |
| 2026-05-04 11:51 | 33.97068 | 134.59055 | 9017 ft | 242 kts | 354° |
| 2026-05-04 11:52 | 33.98750 | 134.59039 | 8959 ft | 241 kts | 354° |
| 2026-05-04 11:52 | 34.00415 | 134.59029 | 8872 ft | 239 kts | 353° |
| 2026-05-04 11:52 | 34.02050 | 134.59007 | 8788 ft | 237 kts | 353° |
| 2026-05-04 11:52 | 34.03695 | 134.58989 | 8701 ft | 235 kts | 353° |
| 2026-05-04 11:53 | 34.05325 | 134.58971 | 8634 ft | 233 kts | 353° |
| 2026-05-04 11:53 | 34.06400 | 134.58960 | 8580 ft | 232 kts | 353° |
| 2026-05-04 11:53 | 34.08556 | 134.58937 | 8432 ft | 230 kts | 353° |
| 2026-05-04 11:53 | 34.10165 | 134.58920 | 8361 ft | 233 kts | 353° |
| 2026-05-04 11:55 | 34.20518 | 134.61681 | 7817 ft | 266 kts | 43° |
| 2026-05-04 11:55 | 34.21688 | 134.63431 | 7670 ft | 266 kts | 44° |
| 2026-05-04 11:56 | 34.22828 | 134.65148 | 7548 ft | 259 kts | 44° |
| 2026-05-04 11:56 | 34.23959 | 134.66819 | 7451 ft | 257 kts | 43° |
| 2026-05-04 11:56 | 34.25099 | 134.68482 | 7341 ft | 257 kts | 43° |
| 2026-05-04 11:56 | 34.26241 | 134.70146 | 7229 ft | 257 kts | 43° |
| 2026-05-04 11:57 | 34.27386 | 134.71802 | 7135 ft | 256 kts | 43° |
| 2026-05-04 11:57 | 34.28469 | 134.73484 | 7042 ft | 250 kts | 44° |
| 2026-05-04 11:57 | 34.29592 | 134.75116 | 6937 ft | 254 kts | 42° |
| 2026-05-04 11:57 | 34.30756 | 134.76755 | 6827 ft | 257 kts | 43° |
| 2026-05-04 11:58 | 34.31899 | 134.78380 | 6731 ft | 258 kts | 43° |
| 2026-05-04 11:58 | 34.33059 | 134.80045 | 6619 ft | 259 kts | 43° |
| 2026-05-04 11:58 | 34.34209 | 134.81711 | 6495 ft | 257 kts | 46° |
| 2026-05-04 11:58 | 34.35228 | 134.83454 | 6375 ft | 250 kts | 44° |
| 2026-05-04 11:59 | 34.36339 | 134.85047 | 6283 ft | 246 kts | 41° |
| 2026-05-04 11:59 | 34.37476 | 134.86600 | 6191 ft | 247 kts | 41° |
| 2026-05-04 11:59 | 34.38612 | 134.88169 | 6100 ft | 249 kts | 42° |
| 2026-05-04 11:59 | 34.39745 | 134.89769 | 5965 ft | 251 kts | 43° |
| 2026-05-04 12:00 | 34.40872 | 134.91390 | 5872 ft | 252 kts | 43° |
| 2026-05-04 12:00 | 34.42003 | 134.93026 | 5768 ft | 253 kts | 43° |
| 2026-05-04 12:00 | 34.43132 | 134.94668 | 5667 ft | 255 kts | 44° |
| 2026-05-04 12:00 | 34.44256 | 134.96305 | 5559 ft | 256 kts | 44° |
| 2026-05-04 12:01 | 34.45379 | 134.97947 | 5444 ft | 250 kts | 44° |
| 2026-05-04 12:01 | 34.46482 | 134.99558 | 5339 ft | 246 kts | 44° |
| 2026-05-04 12:02 | 34.52983 | 135.09053 | 4682 ft | 244 kts | 45° |
| 2026-05-04 12:03 | 34.54064 | 135.10636 | 4580 ft | 244 kts | 45° |
| 2026-05-04 12:03 | 34.55150 | 135.12225 | 4480 ft | 244 kts | 45° |
| 2026-05-04 12:03 | 34.56233 | 135.13811 | 4376 ft | 244 kts | 45° |
| 2026-05-04 12:03 | 34.57307 | 135.15385 | 4305 ft | 241 kts | 45° |
| 2026-05-04 12:04 | 34.58372 | 135.16947 | 4179 ft | 240 kts | 45° |
| 2026-05-04 12:04 | 34.59428 | 135.18504 | 4064 ft | 236 kts | 48° |
| 2026-05-04 12:04 | 34.60087 | 135.20338 | 3927 ft | 249 kts | 79° |
| 2026-05-04 12:04 | 34.59761 | 135.22427 | 3825 ft | 256 kts | 114° |
| 2026-05-04 12:05 | 34.58882 | 135.24332 | 3538 ft | 260 kts | 118° |
| 2026-05-04 12:05 | 34.57996 | 135.26227 | 3266 ft | 256 kts | 118° |
| 2026-05-04 12:05 | 34.57134 | 135.28096 | 3010 ft | 251 kts | 118° |
| 2026-05-04 12:05 | 34.56293 | 135.29929 | 2778 ft | 246 kts | 117° |
| 2026-05-04 12:06 | 34.55471 | 135.31717 | 2533 ft | 240 kts | 118° |
| 2026-05-04 12:06 | 34.54671 | 135.33465 | 2333 ft | 232 kts | 120° |
| 2026-05-04 12:06 | 34.53584 | 135.34793 | 2116 ft | 220 kts | 156° |
| 2026-05-04 12:06 | 34.52130 | 135.34920 | 1950 ft | 207 kts | 198° |
| 2026-05-04 12:07 | 34.50995 | 135.34009 | 1775 ft | 189 kts | 239° |
| 2026-05-04 12:07 | 34.50555 | 135.32644 | 1697 ft | 168 kts | 263° |
| 2026-05-04 12:07 | 34.50080 | 135.31296 | 1512 ft | 183 kts | 233° |
| 2026-05-04 12:07 | 34.49222 | 135.30250 | 1314 ft | 169 kts | 237° |
| 2026-05-04 12:08 | 34.48586 | 135.29155 | 1079 ft | 153 kts | 234° |
| 2026-05-04 12:08 | 34.47933 | 135.28224 | 900 ft | 137 kts | 237° |
| 2026-05-04 12:08 | 34.47339 | 135.27346 | 732 ft | 136 kts | 236° |
| 2026-05-04 12:08 | 34.46735 | 135.26447 | 611 ft | 135 kts | 236° |
| 2026-05-04 12:09 | 34.46158 | 135.25611 | 386 ft | 129 kts | 236° |
| 2026-05-04 12:09 | 34.45619 | 135.24769 | 265 ft | 124 kts | 240° |
| 2026-05-04 12:09 | 34.45094 | 135.23952 | 108 ft | 124 kts | 236° |
| 2026-05-04 12:09 | 34.44577 | 135.23196 | 36 ft | 103 kts | 237° |
| 2026-05-04 12:10 | 34.44195 | 135.22613 | 34 ft | 71 kts | 230° |
| 2026-05-04 12:10 | 34.43960 | 135.22267 | 35 ft | 35 kts | 227° |
| 2026-05-04 12:10 | 34.43807 | 135.22138 | 36 ft | 23 kts | 205° |
| 2026-05-04 12:10 | 34.43688 | 135.22115 | 33 ft | 15 kts | 148° |
| 2026-05-04 12:11 | 34.43701 | 135.22225 | 33 ft | 15 kts | 52° |
| 2026-05-04 12:11 | 34.43768 | 135.22321 | 33 ft | 15 kts | 50° |
| 2026-05-04 12:11 | 34.43785 | 135.22422 | 33 ft | 13 kts | 130° |
| 2026-05-04 12:11 | 34.43779 | 135.22528 | 33 ft | 13 kts | 95° |
| 2026-05-04 12:12 | 34.43725 | 135.22612 | 33 ft | 13 kts | 142° |
| 2026-05-04 12:12 | 34.43653 | 135.22682 | 33 ft | 13 kts | 141° |
| 2026-05-04 12:12 | 34.43577 | 135.22756 | 31 ft | 18 kts | 141° |
| 2026-05-04 12:12 | 34.43455 | 135.22877 | 33 ft | 25 kts | 142° |
| 2026-05-04 12:13 | 34.43318 | 135.23010 | 33 ft | 25 kts | 141° |
| 2026-05-04 12:14 | 34.43029 | 135.23743 | 27 ft | 0 kts | 139° |